sensor_id;sensor_type;location;lat;lon;timestamp;pressure;altitude;pressure_sealevel;temperature;humidity
7182;BME280;3632;42.724;23.298;2023-07-22T00:00:00;95279.84;;;25.61;58.70
7182;BME280;3632;42.724;23.298;2023-07-22T00:02:32;95255.91;;;25.64;57.78
7182;BME280;3632;42.724;23.298;2023-07-22T00:04:59;95129.47;;;24.48;57.56
7182;BME280;3632;42.724;23.298;2023-07-22T00:07:25;95328.22;;;26.13;56.86
7182;BME280;3632;42.724;23.298;2023-07-22T00:09:53;95298.22;;;26.22;56.89
7182;BME280;3632;42.724;23.298;2023-07-22T00:12:19;95326.91;;;26.29;56.61
7182;BME280;3632;42.724;23.298;2023-07-22T00:14:51;95300.91;;;26.34;57.00
7182;BME280;3632;42.724;23.298;2023-07-22T00:17:18;95295.63;;;26.22;56.54
7182;BME280;3632;42.724;23.298;2023-07-22T00:19:47;95238.66;;;25.07;58.57
7182;BME280;3632;42.724;23.298;2023-07-22T00:22:14;95273.75;;;25.92;58.29
7182;BME280;3632;42.724;23.298;2023-07-22T00:24:42;95222.84;;;25.27;59.45
7182;BME280;3632;42.724;23.298;2023-07-22T00:27:09;95248.16;;;25.51;59.57
7182;BME280;3632;42.724;23.298;2023-07-22T00:29:35;95101.66;;;23.91;58.85
7182;BME280;3632;42.724;23.298;2023-07-22T00:32:04;95212.59;;;25.32;59.60
7182;BME280;3632;42.724;23.298;2023-07-22T00:34:32;95230.31;;;25.48;58.99
7182;BME280;3632;42.724;23.298;2023-07-22T00:37:00;95295.47;;;26.11;58.43
7182;BME280;3632;42.724;23.298;2023-07-22T00:39:27;95219.13;;;25.41;58.97
7182;BME280;3632;42.724;23.298;2023-07-22T00:41:54;95309.63;;;25.78;59.93
7182;BME280;3632;42.724;23.298;2023-07-22T00:44:20;95300.78;;;25.79;59.63
7182;BME280;3632;42.724;23.298;2023-07-22T00:46:47;95309.88;;;25.39;61.23
7182;BME280;3632;42.724;23.298;2023-07-22T00:49:16;95317.03;;;25.19;62.27
7182;BME280;3632;42.724;23.298;2023-07-22T00:51:42;95310.03;;;25.13;62.94
7182;BME280;3632;42.724;23.298;2023-07-22T00:54:10;95335.75;;;25.02;63.48
7182;BME280;3632;42.724;23.298;2023-07-22T00:56:37;95315.16;;;25.32;62.43
7182;BME280;3632;42.724;23.298;2023-07-22T00:59:07;95318.63;;;25.51;60.58
7182;BME280;3632;42.724;23.298;2023-07-22T01:01:33;95310.16;;;25.62;60.13
7182;BME280;3632;42.724;23.298;2023-07-22T01:04:00;95309.91;;;25.70;60.62
7182;BME280;3632;42.724;23.298;2023-07-22T01:06:29;95300.16;;;25.53;61.29
7182;BME280;3632;42.724;23.298;2023-07-22T01:08:56;95312.44;;;25.14;62.93
7182;BME280;3632;42.724;23.298;2023-07-22T01:11:25;95294.44;;;24.99;63.25
7182;BME280;3632;42.724;23.298;2023-07-22T01:13:51;95180.50;;;24.18;64.66
7182;BME280;3632;42.724;23.298;2023-07-22T01:16:24;95302.03;;;25.08;64.12
7182;BME280;3632;42.724;23.298;2023-07-22T01:18:51;95293.97;;;25.16;63.56
7182;BME280;3632;42.724;23.298;2023-07-22T01:21:19;95291.69;;;25.26;63.59
7182;BME280;3632;42.724;23.298;2023-07-22T01:23:47;95282.28;;;25.25;63.39
7182;BME280;3632;42.724;23.298;2023-07-22T01:26:14;95295.53;;;25.55;62.08
7182;BME280;3632;42.724;23.298;2023-07-22T01:28:41;95292.91;;;25.61;61.36
7182;BME280;3632;42.724;23.298;2023-07-22T01:31:08;95288.22;;;25.70;61.39
7182;BME280;3632;42.724;23.298;2023-07-22T01:33:34;95289.38;;;25.74;61.06
7182;BME280;3632;42.724;23.298;2023-07-22T01:36:03;95291.91;;;25.24;61.59
7182;BME280;3632;42.724;23.298;2023-07-22T01:38:30;95286.88;;;25.61;61.78
7182;BME280;3632;42.724;23.298;2023-07-22T01:40:58;95238.69;;;25.32;61.74
7182;BME280;3632;42.724;23.298;2023-07-22T01:43:25;95282.66;;;25.60;61.71
7182;BME280;3632;42.724;23.298;2023-07-22T01:45:52;95266.28;;;25.15;61.60
7182;BME280;3632;42.724;23.298;2023-07-22T01:48:19;95271.50;;;25.15;63.33
7182;BME280;3632;42.724;23.298;2023-07-22T01:50:47;95274.84;;;24.90;64.72
7182;BME280;3632;42.724;23.298;2023-07-22T01:53:14;95270.03;;;24.87;64.79
7182;BME280;3632;42.724;23.298;2023-07-22T01:55:40;95273.09;;;24.71;66.48
7182;BME280;3632;42.724;23.298;2023-07-22T01:58:09;95099.81;;;22.94;68.09
7182;BME280;3632;42.724;23.298;2023-07-22T02:00:35;95265.78;;;24.48;68.08
7182;BME280;3632;42.724;23.298;2023-07-22T02:03:02;95266.50;;;24.62;67.26
7182;BME280;3632;42.724;23.298;2023-07-22T02:05:29;95001.81;;;23.01;66.86
7182;BME280;3632;42.724;23.298;2023-07-22T02:07:57;95244.59;;;24.76;64.84
7182;BME280;3632;42.724;23.298;2023-07-22T02:10:23;95292.19;;;25.10;63.43
7182;BME280;3632;42.724;23.298;2023-07-22T02:12:50;95268.63;;;25.23;63.05
7182;BME280;3632;42.724;23.298;2023-07-22T02:15:18;95275.03;;;25.27;62.13
7182;BME280;3632;42.724;23.298;2023-07-22T02:17:47;95273.41;;;25.32;62.43
7182;BME280;3632;42.724;23.298;2023-07-22T02:20:14;95279.38;;;25.39;62.22
7182;BME280;3632;42.724;23.298;2023-07-22T02:22:40;95349.88;;;25.26;61.82
7182;BME280;3632;42.724;23.298;2023-07-22T02:25:08;95323.00;;;25.26;61.54
7182;BME280;3632;42.724;23.298;2023-07-22T02:27:35;95275.47;;;25.17;62.13
7182;BME280;3632;42.724;23.298;2023-07-22T02:30:03;95282.69;;;25.22;61.96
7182;BME280;3632;42.724;23.298;2023-07-22T02:32:31;95289.31;;;25.24;61.72
7182;BME280;3632;42.724;23.298;2023-07-22T02:34:58;95287.66;;;25.30;61.52
7182;BME280;3632;42.724;23.298;2023-07-22T02:37:25;95289.44;;;25.36;61.15
7182;BME280;3632;42.724;23.298;2023-07-22T02:39:53;95319.19;;;25.28;61.45
7182;BME280;3632;42.724;23.298;2023-07-22T02:42:20;95286.94;;;25.16;61.49
7182;BME280;3632;42.724;23.298;2023-07-22T02:44:47;95281.94;;;25.15;61.60
7182;BME280;3632;42.724;23.298;2023-07-22T02:47:14;95278.16;;;25.11;62.18
7182;BME280;3632;42.724;23.298;2023-07-22T02:49:42;95282.19;;;25.07;62.13
7182;BME280;3632;42.724;23.298;2023-07-22T02:52:08;95287.22;;;25.01;62.46
7182;BME280;3632;42.724;23.298;2023-07-22T02:54:40;95291.44;;;25.02;62.40
7182;BME280;3632;42.724;23.298;2023-07-22T02:57:07;95253.22;;;24.70;62.37
7182;BME280;3632;42.724;23.298;2023-07-22T02:59:34;95295.03;;;25.01;63.17
7182;BME280;3632;42.724;23.298;2023-07-22T03:02:00;95226.09;;;24.46;62.65
7182;BME280;3632;42.724;23.298;2023-07-22T03:04:27;95291.44;;;25.02;62.65
7182;BME280;3632;42.724;23.298;2023-07-22T03:06:56;95292.47;;;24.95;63.05
7182;BME280;3632;42.724;23.298;2023-07-22T03:09:23;95297.72;;;24.88;63.52
7182;BME280;3632;42.724;23.298;2023-07-22T03:11:49;95297.88;;;24.93;63.36
7182;BME280;3632;42.724;23.298;2023-07-22T03:14:16;95294.53;;;24.86;63.46
7182;BME280;3632;42.724;23.298;2023-07-22T03:16:43;95291.28;;;24.84;63.81
7182;BME280;3632;42.724;23.298;2023-07-22T03:19:09;95267.16;;;24.51;64.03
7182;BME280;3632;42.724;23.298;2023-07-22T03:21:36;95296.63;;;24.45;65.35
7182;BME280;3632;42.724;23.298;2023-07-22T03:24:04;95072.22;;;22.93;65.31
7182;BME280;3632;42.724;23.298;2023-07-22T03:26:32;95320.06;;;24.45;64.82
7182;BME280;3632;42.724;23.298;2023-07-22T03:28:58;95307.81;;;24.65;64.79
7182;BME280;3632;42.724;23.298;2023-07-22T03:31:25;95318.00;;;24.67;64.99
7182;BME280;3632;42.724;23.298;2023-07-22T03:33:52;95293.41;;;24.56;64.39
7182;BME280;3632;42.724;23.298;2023-07-22T03:36:19;95278.38;;;24.51;64.42
7182;BME280;3632;42.724;23.298;2023-07-22T03:38:45;95317.34;;;24.84;64.21
7182;BME280;3632;42.724;23.298;2023-07-22T03:41:13;95324.97;;;24.79;64.24
7182;BME280;3632;42.724;23.298;2023-07-22T03:43:40;95322.00;;;24.82;63.90
7182;BME280;3632;42.724;23.298;2023-07-22T03:46:08;95324.19;;;24.85;64.12
7182;BME280;3632;42.724;23.298;2023-07-22T03:48:35;95171.78;;;23.40;64.05
7182;BME280;3632;42.724;23.298;2023-07-22T03:51:02;95330.38;;;24.91;63.38
7182;BME280;3632;42.724;23.298;2023-07-22T03:53:29;95337.44;;;24.90;63.55
7182;BME280;3632;42.724;23.298;2023-07-22T03:55:55;95339.84;;;24.85;64.23
7182;BME280;3632;42.724;23.298;2023-07-22T03:58:23;95336.41;;;24.78;64.01
7182;BME280;3632;42.724;23.298;2023-07-22T04:00:50;95345.47;;;24.76;64.23
7182;BME280;3632;42.724;23.298;2023-07-22T04:03:17;95344.22;;;24.78;64.54
7182;BME280;3632;42.724;23.298;2023-07-22T04:05:43;95341.84;;;24.70;64.22
7182;BME280;3632;42.724;23.298;2023-07-22T04:08:10;95337.69;;;24.63;65.11
7182;BME280;3632;42.724;23.298;2023-07-22T04:10:37;95128.41;;;23.34;65.04
7182;BME280;3632;42.724;23.298;2023-07-22T04:13:08;95016.84;;;22.60;64.66
7182;BME280;3632;42.724;23.298;2023-07-22T04:15:36;95339.84;;;24.66;64.94
7182;BME280;3632;42.724;23.298;2023-07-22T04:18:03;95198.03;;;23.58;65.60
7182;BME280;3632;42.724;23.298;2023-07-22T04:20:30;95370.41;;;24.19;66.92
7182;BME280;3632;42.724;23.298;2023-07-22T04:22:56;94875.13;;;21.46;66.37
7182;BME280;3632;42.724;23.298;2023-07-22T04:25:23;95351.72;;;24.55;66.44
7182;BME280;3632;42.724;23.298;2023-07-22T04:27:50;95340.69;;;24.60;66.53
7182;BME280;3632;42.724;23.298;2023-07-22T04:30:17;95360.28;;;24.82;66.10
7182;BME280;3632;42.724;23.298;2023-07-22T04:32:48;95355.25;;;24.93;65.27
7182;BME280;3632;42.724;23.298;2023-07-22T04:35:16;95365.97;;;24.46;65.19
7182;BME280;3632;42.724;23.298;2023-07-22T04:37:43;95342.22;;;24.87;65.06
7182;BME280;3632;42.724;23.298;2023-07-22T04:40:11;95367.88;;;25.03;65.11
7182;BME280;3632;42.724;23.298;2023-07-22T04:42:39;95369.25;;;25.06;65.43
7182;BME280;3632;42.724;23.298;2023-07-22T04:45:07;95367.28;;;24.94;66.22
7182;BME280;3632;42.724;23.298;2023-07-22T04:47:35;95239.38;;;24.25;66.08
7182;BME280;3632;42.724;23.298;2023-07-22T04:50:07;94804.31;;;21.52;66.03
7182;BME280;3632;42.724;23.298;2023-07-22T04:55:41;95122.97;;;23.42;64.93
7182;BME280;3632;42.724;23.298;2023-07-22T04:58:08;95367.53;;;25.31;65.36
7182;BME280;3632;42.724;23.298;2023-07-22T05:00:36;95295.13;;;24.82;65.63
7182;BME280;3632;42.724;23.298;2023-07-22T05:03:03;95383.19;;;25.31;65.91
7182;BME280;3632;42.724;23.298;2023-07-22T05:05:32;95386.94;;;25.41;65.73
7182;BME280;3632;42.724;23.298;2023-07-22T05:07:58;95388.78;;;25.34;65.87
7182;BME280;3632;42.724;23.298;2023-07-22T05:10:27;95242.03;;;24.19;66.09
7182;BME280;3632;42.724;23.298;2023-07-22T05:12:55;95324.72;;;25.07;66.45
7182;BME280;3632;42.724;23.298;2023-07-22T05:15:22;95374.06;;;25.46;66.65
7182;BME280;3632;42.724;23.298;2023-07-22T05:17:49;95374.63;;;25.55;65.95
7182;BME280;3632;42.724;23.298;2023-07-22T05:20:16;95378.28;;;25.54;66.49
7182;BME280;3632;42.724;23.298;2023-07-22T05:22:44;95382.66;;;25.60;66.29
7182;BME280;3632;42.724;23.298;2023-07-22T05:25:11;95381.22;;;25.64;66.03
7182;BME280;3632;42.724;23.298;2023-07-22T05:27:37;95372.63;;;25.57;65.81
7182;BME280;3632;42.724;23.298;2023-07-22T05:30:06;95379.75;;;25.75;65.85
7182;BME280;3632;42.724;23.298;2023-07-22T05:32:32;95382.31;;;25.81;66.04
7182;BME280;3632;42.724;23.298;2023-07-22T05:34:59;95371.94;;;25.68;66.19
7182;BME280;3632;42.724;23.298;2023-07-22T05:37:26;95387.44;;;25.95;66.25
7182;BME280;3632;42.724;23.298;2023-07-22T05:39:55;95393.53;;;25.88;66.45
7182;BME280;3632;42.724;23.298;2023-07-22T05:42:21;95395.16;;;25.83;67.40
7182;BME280;3632;42.724;23.298;2023-07-22T05:44:48;95394.09;;;25.90;66.41
7182;BME280;3632;42.724;23.298;2023-07-22T05:47:15;95248.66;;;25.10;66.74
7182;BME280;3632;42.724;23.298;2023-07-22T05:49:42;95384.81;;;25.63;67.22
7182;BME280;3632;42.724;23.298;2023-07-22T05:52:08;95376.84;;;25.58;67.69
7182;BME280;3632;42.724;23.298;2023-07-22T05:54:35;95256.41;;;24.79;69.32
7182;BME280;3632;42.724;23.298;2023-07-22T05:57:04;95380.91;;;25.54;68.69
7182;BME280;3632;42.724;23.298;2023-07-22T05:59:30;95383.63;;;25.66;68.58
7182;BME280;3632;42.724;23.298;2023-07-22T06:01:57;95388.06;;;25.90;68.10
7182;BME280;3632;42.724;23.298;2023-07-22T06:04:24;95398.81;;;26.07;67.73
7182;BME280;3632;42.724;23.298;2023-07-22T06:06:51;95404.84;;;26.07;67.45
7182;BME280;3632;42.724;23.298;2023-07-22T06:09:17;95417.94;;;26.01;67.78
7182;BME280;3632;42.724;23.298;2023-07-22T06:11:45;95419.22;;;26.16;66.91
7182;BME280;3632;42.724;23.298;2023-07-22T06:14:13;95221.31;;;24.37;66.39
7182;BME280;3632;42.724;23.298;2023-07-22T06:16:40;95410.38;;;26.17;66.36
7182;BME280;3632;42.724;23.298;2023-07-22T06:19:07;95418.53;;;26.34;66.18
7182;BME280;3632;42.724;23.298;2023-07-22T06:21:33;95414.75;;;26.48;66.32
7182;BME280;3632;42.724;23.298;2023-07-22T06:24:00;95341.19;;;25.39;66.05
7182;BME280;3632;42.724;23.298;2023-07-22T06:26:27;95422.88;;;26.65;66.10
7182;BME280;3632;42.724;23.298;2023-07-22T06:28:54;95429.00;;;26.77;67.04
7182;BME280;3632;42.724;23.298;2023-07-22T06:31:22;95423.28;;;27.23;64.74
7182;BME280;3632;42.724;23.298;2023-07-22T06:33:49;95427.31;;;27.37;64.32
7182;BME280;3632;42.724;23.298;2023-07-22T06:36:15;95429.88;;;27.44;63.64
7182;BME280;3632;42.724;23.298;2023-07-22T06:38:43;95438.75;;;27.43;65.09
7182;BME280;3632;42.724;23.298;2023-07-22T06:41:09;95428.13;;;27.38;64.23
7182;BME280;3632;42.724;23.298;2023-07-22T06:43:36;95399.88;;;27.28;63.33
7182;BME280;3632;42.724;23.298;2023-07-22T06:46:03;95423.78;;;27.50;63.71
7182;BME280;3632;42.724;23.298;2023-07-22T06:48:31;95423.25;;;27.59;66.29
7182;BME280;3632;42.724;23.298;2023-07-22T06:50:57;95423.13;;;27.54;67.10
7182;BME280;3632;42.724;23.298;2023-07-22T06:53:24;95410.84;;;27.37;65.13
7182;BME280;3632;42.724;23.298;2023-07-22T06:55:51;95416.81;;;27.74;65.09
7182;BME280;3632;42.724;23.298;2023-07-22T06:58:19;95415.81;;;27.75;64.11
7182;BME280;3632;42.724;23.298;2023-07-22T07:00:47;95303.34;;;27.20;63.34
7182;BME280;3632;42.724;23.298;2023-07-22T07:03:14;95332.44;;;27.42;63.02
7182;BME280;3632;42.724;23.298;2023-07-22T07:05:42;95230.81;;;26.79;64.06
7182;BME280;3632;42.724;23.298;2023-07-22T07:08:09;95364.34;;;27.80;63.04
7182;BME280;3632;42.724;23.298;2023-07-22T07:10:37;95406.69;;;28.19;63.36
7182;BME280;3632;42.724;23.298;2023-07-22T07:13:05;95417.59;;;28.04;64.10
7182;BME280;3632;42.724;23.298;2023-07-22T07:15:31;95402.25;;;28.19;63.12
7182;BME280;3632;42.724;23.298;2023-07-22T07:17:58;95352.84;;;27.93;63.91
7182;BME280;3632;42.724;23.298;2023-07-22T07:20:25;95407.63;;;28.36;63.65
7182;BME280;3632;42.724;23.298;2023-07-22T07:22:53;95405.59;;;28.26;64.68
7182;BME280;3632;42.724;23.298;2023-07-22T07:25:20;95303.25;;;27.26;65.18
7182;BME280;3632;42.724;23.298;2023-07-22T07:27:47;95398.16;;;27.82;66.66
7182;BME280;3632;42.724;23.298;2023-07-22T07:30:14;95407.50;;;27.78;65.91
7182;BME280;3632;42.724;23.298;2023-07-22T07:32:40;95407.78;;;27.99;68.80
7182;BME280;3632;42.724;23.298;2023-07-22T07:35:08;95357.88;;;27.94;64.47
7182;BME280;3632;42.724;23.298;2023-07-22T07:37:35;94990.47;;;25.65;62.01
7182;BME280;3632;42.724;23.298;2023-07-22T07:40:03;95392.50;;;28.38;62.31
7182;BME280;3632;42.724;23.298;2023-07-22T07:42:31;95405.47;;;28.44;60.23
7182;BME280;3632;42.724;23.298;2023-07-22T07:44:57;95147.38;;;26.77;60.50
7182;BME280;3632;42.724;23.298;2023-07-22T07:47:24;95385.19;;;28.51;59.69
7182;BME280;3632;42.724;23.298;2023-07-22T07:49:51;95156.25;;;26.58;59.21
7182;BME280;3632;42.724;23.298;2023-07-22T07:52:18;95385.75;;;28.53;59.57
7182;BME280;3632;42.724;23.298;2023-07-22T07:54:44;95381.09;;;28.55;59.61
7182;BME280;3632;42.724;23.298;2023-07-22T07:57:12;95375.88;;;29.07;57.47
7182;BME280;3632;42.724;23.298;2023-07-22T07:59:39;95382.66;;;29.43;55.36
7182;BME280;3632;42.724;23.298;2023-07-22T08:02:06;95170.03;;;27.95;54.84
7182;BME280;3632;42.724;23.298;2023-07-22T08:04:35;95396.09;;;29.75;56.14
7182;BME280;3632;42.724;23.298;2023-07-22T08:07:03;95053.72;;;27.44;55.65
7182;BME280;3632;42.724;23.298;2023-07-22T08:09:30;95372.19;;;29.60;55.83
7182;BME280;3632;42.724;23.298;2023-07-22T08:11:57;95370.19;;;29.78;54.27
7182;BME280;3632;42.724;23.298;2023-07-22T08:14:26;95052.59;;;27.52;55.56
7182;BME280;3632;42.724;23.298;2023-07-22T08:16:53;95381.38;;;29.45;56.23
7182;BME280;3632;42.724;23.298;2023-07-22T08:19:20;95383.47;;;29.43;56.30
7182;BME280;3632;42.724;23.298;2023-07-22T08:21:47;95424.47;;;29.44;56.85
7182;BME280;3632;42.724;23.298;2023-07-22T08:24:14;95382.38;;;29.16;56.08
7182;BME280;3632;42.724;23.298;2023-07-22T08:26:41;95383.75;;;29.30;55.18
7182;BME280;3632;42.724;23.298;2023-07-22T08:29:09;95191.34;;;27.52;56.04
7182;BME280;3632;42.724;23.298;2023-07-22T08:31:37;95360.47;;;29.50;56.77
7182;BME280;3632;42.724;23.298;2023-07-22T08:34:04;95348.09;;;29.91;54.69
7182;BME280;3632;42.724;23.298;2023-07-22T08:36:31;95226.66;;;28.99;52.98
7182;BME280;3632;42.724;23.298;2023-07-22T08:38:57;95334.44;;;30.11;54.54
7182;BME280;3632;42.724;23.298;2023-07-22T08:41:25;95306.34;;;30.11;52.49
7182;BME280;3632;42.724;23.298;2023-07-22T08:43:54;95347.44;;;30.72;51.29
7182;BME280;3632;42.724;23.298;2023-07-22T08:46:22;95332.25;;;30.58;52.77
7182;BME280;3632;42.724;23.298;2023-07-22T08:48:59;95328.34;;;30.82;52.09
7182;BME280;3632;42.724;23.298;2023-07-22T08:51:27;95076.81;;;29.50;50.74
7182;BME280;3632;42.724;23.298;2023-07-22T08:53:55;95262.94;;;30.47;52.59
7182;BME280;3632;42.724;23.298;2023-07-22T08:56:23;95230.16;;;30.55;51.43
7182;BME280;3632;42.724;23.298;2023-07-22T08:58:51;95312.81;;;31.02;51.57
7182;BME280;3632;42.724;23.298;2023-07-22T09:01:18;95320.34;;;30.94;50.68
7182;BME280;3632;42.724;23.298;2023-07-22T09:03:48;95324.09;;;30.76;49.95
7182;BME280;3632;42.724;23.298;2023-07-22T09:06:19;95317.16;;;30.92;50.13
7182;BME280;3632;42.724;23.298;2023-07-22T09:08:46;95317.41;;;31.12;51.86
7182;BME280;3632;42.724;23.298;2023-07-22T09:11:13;95098.44;;;29.96;52.72
7182;BME280;3632;42.724;23.298;2023-07-22T09:13:42;94959.75;;;29.16;53.57
7182;BME280;3632;42.724;23.298;2023-07-22T09:16:11;95311.88;;;31.62;52.86
7182;BME280;3632;42.724;23.298;2023-07-22T09:18:39;95073.25;;;29.78;52.04
7182;BME280;3632;42.724;23.298;2023-07-22T09:21:06;95310.19;;;31.78;50.63
7182;BME280;3632;42.724;23.298;2023-07-22T09:23:36;94908.69;;;29.24;50.13
7182;BME280;3632;42.724;23.298;2023-07-22T09:26:11;95306.16;;;32.02;49.93
7182;BME280;3632;42.724;23.298;2023-07-22T09:28:48;95298.59;;;32.10;50.19
7182;BME280;3632;42.724;23.298;2023-07-22T09:31:15;95028.19;;;30.62;50.01
7182;BME280;3632;42.724;23.298;2023-07-22T09:33:42;95299.13;;;32.54;49.04
7182;BME280;3632;42.724;23.298;2023-07-22T09:36:10;95295.72;;;32.59;47.25
7182;BME280;3632;42.724;23.298;2023-07-22T09:38:39;95275.84;;;32.46;46.16
7182;BME280;3632;42.724;23.298;2023-07-22T09:41:06;95250.69;;;32.24;46.79
7182;BME280;3632;42.724;23.298;2023-07-22T09:43:36;95282.34;;;32.71;45.84
7182;BME280;3632;42.724;23.298;2023-07-22T09:46:07;95259.56;;;32.59;46.71
7182;BME280;3632;42.724;23.298;2023-07-22T09:48:42;95287.38;;;32.77;45.69
7182;BME280;3632;42.724;23.298;2023-07-22T09:51:13;95329.16;;;32.95;45.55
7182;BME280;3632;42.724;23.298;2023-07-22T09:53:59;95245.19;;;32.87;45.49
7182;BME280;3632;42.724;23.298;2023-07-22T09:56:28;95068.97;;;31.70;44.00
7182;BME280;3632;42.724;23.298;2023-07-22T09:58:56;95273.06;;;33.35;45.10
7182;BME280;3632;42.724;23.298;2023-07-22T10:01:25;95264.34;;;33.50;46.46
7182;BME280;3632;42.724;23.298;2023-07-22T10:03:53;95269.34;;;33.62;47.37
7182;BME280;3632;42.724;23.298;2023-07-22T10:06:23;95075.06;;;32.38;45.63
7182;BME280;3632;42.724;23.298;2023-07-22T10:08:52;95231.56;;;33.41;44.86
7182;BME280;3632;42.724;23.298;2023-07-22T10:11:19;95263.84;;;33.83;45.88
7182;BME280;3632;42.724;23.298;2023-07-22T10:13:46;95264.34;;;34.11;44.65
7182;BME280;3632;42.724;23.298;2023-07-22T10:16:15;95273.06;;;34.21;40.59
7182;BME280;3632;42.724;23.298;2023-07-22T10:18:43;95105.22;;;32.62;38.26
7182;BME280;3632;42.724;23.298;2023-07-22T10:21:10;95277.84;;;34.04;38.66
7182;BME280;3632;42.724;23.298;2023-07-22T10:23:38;95261.69;;;34.26;39.84
7182;BME280;3632;42.724;23.298;2023-07-22T10:26:07;95250.28;;;34.40;38.73
7182;BME280;3632;42.724;23.298;2023-07-22T10:28:38;95260.09;;;34.25;38.70
7182;BME280;3632;42.724;23.298;2023-07-22T10:31:06;95254.56;;;34.16;39.11
7182;BME280;3632;42.724;23.298;2023-07-22T10:33:34;95247.06;;;34.49;38.70
7182;BME280;3632;42.724;23.298;2023-07-22T10:36:04;95250.75;;;34.53;37.93
7182;BME280;3632;42.724;23.298;2023-07-22T10:38:31;95025.50;;;33.00;38.61
7182;BME280;3632;42.724;23.298;2023-07-22T10:40:58;95248.94;;;34.38;39.56
7182;BME280;3632;42.724;23.298;2023-07-22T10:43:33;95151.22;;;33.72;38.80
7182;BME280;3632;42.724;23.298;2023-07-22T10:46:06;94993.28;;;33.08;37.21
7182;BME280;3632;42.724;23.298;2023-07-22T10:48:35;95248.28;;;34.81;36.17
7182;BME280;3632;42.724;23.298;2023-07-22T10:51:06;95235.06;;;34.76;35.69
7182;BME280;3632;42.724;23.298;2023-07-22T10:53:40;95015.97;;;33.30;35.12
7182;BME280;3632;42.724;23.298;2023-07-22T10:56:11;95236.16;;;35.24;35.60
7182;BME280;3632;42.724;23.298;2023-07-22T10:59:01;94987.31;;;33.62;35.55
7182;BME280;3632;42.724;23.298;2023-07-22T11:01:33;95233.09;;;35.46;35.43
7182;BME280;3632;42.724;23.298;2023-07-22T11:04:21;95172.13;;;35.02;35.18
7182;BME280;3632;42.724;23.298;2023-07-22T11:06:54;95227.34;;;35.34;34.56
7182;BME280;3632;42.724;23.298;2023-07-22T11:09:35;95233.09;;;35.46;34.12
7182;BME280;3632;42.724;23.298;2023-07-22T11:12:04;95231.97;;;35.52;34.73
7182;BME280;3632;42.724;23.298;2023-07-22T11:14:34;95224.19;;;35.61;34.94
7182;BME280;3632;42.724;23.298;2023-07-22T11:17:03;95213.53;;;35.71;34.30
7182;BME280;3632;42.724;23.298;2023-07-22T11:19:30;95219.38;;;36.02;34.80
7182;BME280;3632;42.724;23.298;2023-07-22T11:21:58;94986.84;;;34.09;34.40
7182;BME280;3632;42.724;23.298;2023-07-22T11:24:24;95116.56;;;35.31;34.34
7182;BME280;3632;42.724;23.298;2023-07-22T11:26:52;95171.88;;;35.43;35.11
7182;BME280;3632;42.724;23.298;2023-07-22T11:29:19;95187.97;;;34.63;35.57
7182;BME280;3632;42.724;23.298;2023-07-22T11:31:49;95156.75;;;34.55;35.92
7182;BME280;3632;42.724;23.298;2023-07-22T11:34:18;95061.97;;;34.08;36.34
7182;BME280;3632;42.724;23.298;2023-07-22T11:36:45;95003.97;;;33.73;36.07
7182;BME280;3632;42.724;23.298;2023-07-22T11:39:14;95165.28;;;35.35;35.40
7182;BME280;3632;42.724;23.298;2023-07-22T11:41:42;95196.91;;;35.60;35.75
7182;BME280;3632;42.724;23.298;2023-07-22T11:44:10;94944.41;;;33.85;36.66
7182;BME280;3632;42.724;23.298;2023-07-22T11:46:51;95189.91;;;35.74;36.19
7182;BME280;3632;42.724;23.298;2023-07-22T11:49:26;94989.69;;;34.96;35.64
7182;BME280;3632;42.724;23.298;2023-07-22T11:51:58;95194.22;;;36.71;34.64
7182;BME280;3632;42.724;23.298;2023-07-22T11:54:25;95217.31;;;36.89;34.51
7182;BME280;3632;42.724;23.298;2023-07-22T11:56:53;95187.72;;;36.77;34.79
7182;BME280;3632;42.724;23.298;2023-07-22T11:59:35;95184.31;;;36.29;35.31
7182;BME280;3632;42.724;23.298;2023-07-22T12:02:05;95208.47;;;35.74;35.67
7182;BME280;3632;42.724;23.298;2023-07-22T12:04:33;95196.09;;;35.94;35.34
7182;BME280;3632;42.724;23.298;2023-07-22T12:07:01;95190.50;;;35.66;36.37
7182;BME280;3632;42.724;23.298;2023-07-22T12:09:29;95147.38;;;35.85;35.92
7182;BME280;3632;42.724;23.298;2023-07-22T12:11:57;95170.91;;;36.62;35.30
7182;BME280;3632;42.724;23.298;2023-07-22T12:14:31;95172.16;;;36.70;34.45
7182;BME280;3632;42.724;23.298;2023-07-22T12:16:59;95203.88;;;36.80;34.08
7182;BME280;3632;42.724;23.298;2023-07-22T12:19:29;95117.81;;;36.62;34.14
7182;BME280;3632;42.724;23.298;2023-07-22T12:21:56;95161.09;;;37.00;33.47
7182;BME280;3632;42.724;23.298;2023-07-22T12:24:23;95165.22;;;37.44;33.36
7182;BME280;3632;42.724;23.298;2023-07-22T12:26:50;95160.31;;;37.83;34.48
7182;BME280;3632;42.724;23.298;2023-07-22T12:29:17;95164.97;;;38.32;34.33
7182;BME280;3632;42.724;23.298;2023-07-22T12:31:44;94949.97;;;36.93;33.15
7182;BME280;3632;42.724;23.298;2023-07-22T12:34:11;95125.94;;;38.42;32.66
7182;BME280;3632;42.724;23.298;2023-07-22T12:36:40;95156.91;;;39.01;32.72
7182;BME280;3632;42.724;23.298;2023-07-22T12:39:06;95149.28;;;39.08;31.97
7182;BME280;3632;42.724;23.298;2023-07-22T12:41:33;95143.25;;;38.66;32.67
7182;BME280;3632;42.724;23.298;2023-07-22T12:44:00;95042.06;;;37.89;33.10
7182;BME280;3632;42.724;23.298;2023-07-22T12:46:27;95071.13;;;38.13;31.77
7182;BME280;3632;42.724;23.298;2023-07-22T12:48:54;95139.66;;;38.84;31.61
7182;BME280;3632;42.724;23.298;2023-07-22T12:51:21;95141.94;;;39.13;30.45
7182;BME280;3632;42.724;23.298;2023-07-22T12:53:49;95134.84;;;39.09;31.13
7182;BME280;3632;42.724;23.298;2023-07-22T12:56:16;95092.13;;;38.78;31.90
7182;BME280;3632;42.724;23.298;2023-07-22T12:58:42;95138.84;;;39.34;31.13
7182;BME280;3632;42.724;23.298;2023-07-22T13:01:09;95141.34;;;39.92;31.10
7182;BME280;3632;42.724;23.298;2023-07-22T13:03:36;95129.44;;;40.46;30.39
7182;BME280;3632;42.724;23.298;2023-07-22T13:06:03;95119.28;;;40.74;29.75
7182;BME280;3632;42.724;23.298;2023-07-22T13:08:31;95117.22;;;40.88;28.85
7182;BME280;3632;42.724;23.298;2023-07-22T13:10:59;95121.00;;;40.61;29.70
7182;BME280;3632;42.724;23.298;2023-07-22T13:13:25;95122.84;;;40.52;30.52
7182;BME280;3632;42.724;23.298;2023-07-22T13:15:52;95125.13;;;39.80;30.90